sensor_id;sensor_type;location;lat;lon;timestamp;P1;durP1;ratioP1;P2;durP2;ratioP2
9906;SDS011;4992;51.628;6.664;2023-03-02T00:00:52;6.10;;;4.40;;
9906;SDS011;4992;51.628;6.664;2023-03-02T00:03:22;7.07;;;3.93;;
9906;SDS011;4992;51.628;6.664;2023-03-02T00:05:48;5.83;;;4.23;;
9906;SDS011;4992;51.628;6.664;2023-03-02T00:08:14;6.47;;;4.30;;
9906;SDS011;4992;51.628;6.664;2023-03-02T00:10:42;7.30;;;4.70;;
9906;SDS011;4992;51.628;6.664;2023-03-02T00:13:07;5.67;;;4.03;;
9906;SDS011;4992;51.628;6.664;2023-03-02T00:15:33;6.87;;;3.90;;
9906;SDS011;4992;51.628;6.664;2023-03-02T00:17:59;5.87;;;4.20;;
9906;SDS011;4992;51.628;6.664;2023-03-02T00:20:24;6.20;;;4.33;;
9906;SDS011;4992;51.628;6.664;2023-03-02T00:22:50;5.50;;;4.23;;
9906;SDS011;4992;51.628;6.664;2023-03-02T00:25:16;7.10;;;4.37;;
9906;SDS011;4992;51.628;6.664;2023-03-02T00:27:42;7.07;;;4.80;;
9906;SDS011;4992;51.628;6.664;2023-03-02T00:30:08;5.83;;;4.73;;
9906;SDS011;4992;51.628;6.664;2023-03-02T00:32:35;5.20;;;4.03;;
9906;SDS011;4992;51.628;6.664;2023-03-02T00:35:00;6.23;;;3.97;;
9906;SDS011;4992;51.628;6.664;2023-03-02T00:37:26;8.67;;;4.87;;
9906;SDS011;4992;51.628;6.664;2023-03-02T00:39:52;7.63;;;4.83;;
9906;SDS011;4992;51.628;6.664;2023-03-02T00:42:18;6.83;;;5.03;;
9906;SDS011;4992;51.628;6.664;2023-03-02T00:44:45;7.70;;;4.87;;
9906;SDS011;4992;51.628;6.664;2023-03-02T00:47:10;7.37;;;4.83;;
9906;SDS011;4992;51.628;6.664;2023-03-02T00:49:36;7.00;;;4.83;;
9906;SDS011;4992;51.628;6.664;2023-03-02T00:52:02;8.67;;;5.13;;
9906;SDS011;4992;51.628;6.664;2023-03-02T00:54:29;7.63;;;5.20;;
9906;SDS011;4992;51.628;6.664;2023-03-02T00:56:54;6.43;;;4.73;;
9906;SDS011;4992;51.628;6.664;2023-03-02T00:59:20;8.40;;;4.80;;
9906;SDS011;4992;51.628;6.664;2023-03-02T01:01:56;5.57;;;4.83;;
9906;SDS011;4992;51.628;6.664;2023-03-02T01:04:27;7.07;;;4.90;;
9906;SDS011;4992;51.628;6.664;2023-03-02T01:07:04;6.63;;;4.50;;
9906;SDS011;4992;51.628;6.664;2023-03-02T01:09:32;6.50;;;4.50;;
9906;SDS011;4992;51.628;6.664;2023-03-02T01:11:58;7.53;;;4.60;;
9906;SDS011;4992;51.628;6.664;2023-03-02T01:14:24;5.90;;;4.90;;
9906;SDS011;4992;51.628;6.664;2023-03-02T01:16:50;6.90;;;4.77;;
9906;SDS011;4992;51.628;6.664;2023-03-02T01:19:16;6.47;;;4.77;;
9906;SDS011;4992;51.628;6.664;2023-03-02T01:21:42;9.90;;;4.63;;
9906;SDS011;4992;51.628;6.664;2023-03-02T01:24:08;6.40;;;4.70;;
9906;SDS011;4992;51.628;6.664;2023-03-02T01:26:35;7.83;;;5.00;;
9906;SDS011;4992;51.628;6.664;2023-03-02T01:29:01;7.20;;;5.53;;
9906;SDS011;4992;51.628;6.664;2023-03-02T01:31:27;6.37;;;5.07;;
9906;SDS011;4992;51.628;6.664;2023-03-02T01:33:53;6.27;;;5.07;;
9906;SDS011;4992;51.628;6.664;2023-03-02T01:36:19;6.07;;;4.97;;
9906;SDS011;4992;51.628;6.664;2023-03-02T01:38:45;8.73;;;4.73;;
9906;SDS011;4992;51.628;6.664;2023-03-02T01:41:11;5.13;;;4.37;;
9906;SDS011;4992;51.628;6.664;2023-03-02T01:43:37;5.67;;;4.43;;
9906;SDS011;4992;51.628;6.664;2023-03-02T01:48:47;6.80;;;4.77;;
9906;SDS011;4992;51.628;6.664;2023-03-02T01:51:17;5.10;;;4.60;;
9906;SDS011;4992;51.628;6.664;2023-03-02T01:53:46;9.60;;;4.83;;
9906;SDS011;4992;51.628;6.664;2023-03-02T01:56:15;6.67;;;4.73;;
9906;SDS011;4992;51.628;6.664;2023-03-02T01:58:44;8.40;;;4.90;;
9906;SDS011;4992;51.628;6.664;2023-03-02T02:01:12;7.17;;;5.50;;
9906;SDS011;4992;51.628;6.664;2023-03-02T02:03:42;6.97;;;4.93;;
9906;SDS011;4992;51.628;6.664;2023-03-02T02:06:12;7.43;;;4.90;;
9906;SDS011;4992;51.628;6.664;2023-03-02T02:08:50;7.37;;;5.23;;
9906;SDS011;4992;51.628;6.664;2023-03-02T02:11:18;8.70;;;4.97;;
9906;SDS011;4992;51.628;6.664;2023-03-02T02:13:43;8.43;;;5.00;;
9906;SDS011;4992;51.628;6.664;2023-03-02T02:16:10;6.77;;;4.43;;
9906;SDS011;4992;51.628;6.664;2023-03-02T02:18:37;7.80;;;4.73;;
9906;SDS011;4992;51.628;6.664;2023-03-02T02:21:05;5.87;;;4.93;;
9906;SDS011;4992;51.628;6.664;2023-03-02T02:28:55;6.07;;;4.87;;
9906;SDS011;4992;51.628;6.664;2023-03-02T02:31:29;5.77;;;4.53;;
9906;SDS011;4992;51.628;6.664;2023-03-02T02:34:02;7.27;;;4.90;;
9906;SDS011;4992;51.628;6.664;2023-03-02T02:36:46;6.47;;;4.20;;
9906;SDS011;4992;51.628;6.664;2023-03-02T02:39:18;6.30;;;4.90;;
9906;SDS011;4992;51.628;6.664;2023-03-02T02:41:47;5.93;;;4.53;;
9906;SDS011;4992;51.628;6.664;2023-03-02T02:44:16;5.90;;;4.40;;
9906;SDS011;4992;51.628;6.664;2023-03-02T02:46:42;5.00;;;3.83;;
9906;SDS011;4992;51.628;6.664;2023-03-02T02:51:52;6.00;;;4.43;;
9906;SDS011;4992;51.628;6.664;2023-03-02T02:54:17;7.43;;;4.60;;
9906;SDS011;4992;51.628;6.664;2023-03-02T02:56:43;5.27;;;4.03;;
9906;SDS011;4992;51.628;6.664;2023-03-02T02:59:15;7.93;;;4.67;;
9906;SDS011;4992;51.628;6.664;2023-03-02T03:01:45;4.93;;;3.93;;
9906;SDS011;4992;51.628;6.664;2023-03-02T03:04:13;5.13;;;4.07;;
9906;SDS011;4992;51.628;6.664;2023-03-02T03:06:53;6.67;;;4.83;;
9906;SDS011;4992;51.628;6.664;2023-03-02T03:09:21;5.50;;;4.33;;
9906;SDS011;4992;51.628;6.664;2023-03-02T03:11:48;6.73;;;4.70;;
9906;SDS011;4992;51.628;6.664;2023-03-02T03:14:17;5.43;;;4.60;;
9906;SDS011;4992;51.628;6.664;2023-03-02T03:16:50;6.73;;;4.77;;
9906;SDS011;4992;51.628;6.664;2023-03-02T03:19:18;6.30;;;4.30;;
9906;SDS011;4992;51.628;6.664;2023-03-02T03:21:56;7.83;;;4.50;;
9906;SDS011;4992;51.628;6.664;2023-03-02T03:24:24;6.63;;;4.80;;
9906;SDS011;4992;51.628;6.664;2023-03-02T03:26:51;6.33;;;4.80;;
9906;SDS011;4992;51.628;6.664;2023-03-02T03:29:18;7.00;;;4.40;;
9906;SDS011;4992;51.628;6.664;2023-03-02T03:31:48;7.10;;;4.67;;
9906;SDS011;4992;51.628;6.664;2023-03-02T03:34:17;5.50;;;4.13;;
9906;SDS011;4992;51.628;6.664;2023-03-02T03:36:44;5.97;;;4.40;;
9906;SDS011;4992;51.628;6.664;2023-03-02T03:39:12;5.87;;;4.30;;
9906;SDS011;4992;51.628;6.664;2023-03-02T03:41:38;7.27;;;5.20;;
9906;SDS011;4992;51.628;6.664;2023-03-02T03:44:04;5.80;;;4.20;;
9906;SDS011;4992;51.628;6.664;2023-03-02T03:46:29;6.43;;;3.90;;
9906;SDS011;4992;51.628;6.664;2023-03-02T03:48:55;5.10;;;3.50;;
9906;SDS011;4992;51.628;6.664;2023-03-02T03:51:21;6.07;;;4.00;;
9906;SDS011;4992;51.628;6.664;2023-03-02T03:53:47;5.10;;;4.00;;
9906;SDS011;4992;51.628;6.664;2023-03-02T03:56:27;4.47;;;3.60;;
9906;SDS011;4992;51.628;6.664;2023-03-02T03:58:54;5.97;;;4.10;;
9906;SDS011;4992;51.628;6.664;2023-03-02T04:01:34;5.17;;;4.00;;
9906;SDS011;4992;51.628;6.664;2023-03-02T04:04:04;7.30;;;4.40;;
9906;SDS011;4992;51.628;6.664;2023-03-02T04:06:32;5.00;;;4.13;;
9906;SDS011;4992;51.628;6.664;2023-03-02T04:08:57;4.70;;;3.90;;
9906;SDS011;4992;51.628;6.664;2023-03-02T04:11:28;6.97;;;4.20;;
9906;SDS011;4992;51.628;6.664;2023-03-02T04:13:55;4.37;;;3.93;;
9906;SDS011;4992;51.628;6.664;2023-03-02T04:16:21;5.07;;;4.13;;
9906;SDS011;4992;51.628;6.664;2023-03-02T04:18:46;7.40;;;4.00;;
9906;SDS011;4992;51.628;6.664;2023-03-02T04:21:12;8.07;;;4.77;;
9906;SDS011;4992;51.628;6.664;2023-03-02T04:23:37;6.10;;;4.40;;
9906;SDS011;4992;51.628;6.664;2023-03-02T04:26:03;6.83;;;4.90;;
9906;SDS011;4992;51.628;6.664;2023-03-02T04:28:29;6.17;;;4.20;;
9906;SDS011;4992;51.628;6.664;2023-03-02T04:30:56;6.50;;;4.57;;
9906;SDS011;4992;51.628;6.664;2023-03-02T04:33:21;6.03;;;4.50;;
9906;SDS011;4992;51.628;6.664;2023-03-02T04:35:47;8.40;;;5.13;;
9906;SDS011;4992;51.628;6.664;2023-03-02T04:38:13;7.37;;;4.60;;
9906;SDS011;4992;51.628;6.664;2023-03-02T04:40:38;5.50;;;4.20;;
9906;SDS011;4992;51.628;6.664;2023-03-02T04:43:04;5.77;;;4.50;;
9906;SDS011;4992;51.628;6.664;2023-03-02T04:45:30;6.53;;;4.40;;
9906;SDS011;4992;51.628;6.664;2023-03-02T04:47:55;6.23;;;4.43;;
9906;SDS011;4992;51.628;6.664;2023-03-02T04:50:21;6.07;;;3.90;;
9906;SDS011;4992;51.628;6.664;2023-03-02T04:52:46;6.37;;;4.60;;
9906;SDS011;4992;51.628;6.664;2023-03-02T04:55:18;6.20;;;4.13;;
9906;SDS011;4992;51.628;6.664;2023-03-02T04:57:46;5.30;;;4.73;;
9906;SDS011;4992;51.628;6.664;2023-03-02T05:00:12;7.37;;;4.53;;
9906;SDS011;4992;51.628;6.664;2023-03-02T05:02:38;5.10;;;4.60;;
9906;SDS011;4992;51.628;6.664;2023-03-02T05:05:05;5.93;;;4.90;;
9906;SDS011;4992;51.628;6.664;2023-03-02T05:07:31;7.43;;;4.40;;
9906;SDS011;4992;51.628;6.664;2023-03-02T05:09:57;7.23;;;4.80;;
9906;SDS011;4992;51.628;6.664;2023-03-02T05:12:22;7.60;;;5.37;;
9906;SDS011;4992;51.628;6.664;2023-03-02T05:14:48;7.90;;;5.37;;
9906;SDS011;4992;51.628;6.664;2023-03-02T05:17:14;9.07;;;4.87;;
9906;SDS011;4992;51.628;6.664;2023-03-02T05:19:40;7.53;;;4.90;;
9906;SDS011;4992;51.628;6.664;2023-03-02T05:22:05;7.63;;;4.70;;
9906;SDS011;4992;51.628;6.664;2023-03-02T05:24:31;6.70;;;4.03;;
9906;SDS011;4992;51.628;6.664;2023-03-02T05:26:56;8.80;;;4.60;;
9906;SDS011;4992;51.628;6.664;2023-03-02T05:29:22;7.63;;;3.97;;
9906;SDS011;4992;51.628;6.664;2023-03-02T05:31:48;7.50;;;4.57;;
9906;SDS011;4992;51.628;6.664;2023-03-02T05:34:14;6.43;;;4.70;;
9906;SDS011;4992;51.628;6.664;2023-03-02T05:36:41;7.60;;;4.97;;
9906;SDS011;4992;51.628;6.664;2023-03-02T05:39:08;9.00;;;4.87;;
9906;SDS011;4992;51.628;6.664;2023-03-02T05:41:34;8.07;;;5.63;;
9906;SDS011;4992;51.628;6.664;2023-03-02T05:44:00;8.77;;;5.07;;
9906;SDS011;4992;51.628;6.664;2023-03-02T05:46:26;5.93;;;4.90;;
9906;SDS011;4992;51.628;6.664;2023-03-02T05:48:52;9.60;;;5.23;;
9906;SDS011;4992;51.628;6.664;2023-03-02T05:51:18;7.60;;;4.80;;
9906;SDS011;4992;51.628;6.664;2023-03-02T05:53:44;6.70;;;4.93;;
9906;SDS011;4992;51.628;6.664;2023-03-02T05:56:09;7.40;;;5.20;;
9906;SDS011;4992;51.628;6.664;2023-03-02T05:58:35;6.10;;;5.10;;
9906;SDS011;4992;51.628;6.664;2023-03-02T06:01:01;10.90;;;5.57;;
9906;SDS011;4992;51.628;6.664;2023-03-02T06:03:31;7.90;;;5.20;;
9906;SDS011;4992;51.628;6.664;2023-03-02T06:05:56;8.50;;;5.67;;
9906;SDS011;4992;51.628;6.664;2023-03-02T06:08:22;6.77;;;5.30;;
9906;SDS011;4992;51.628;6.664;2023-03-02T06:10:48;6.53;;;5.27;;
9906;SDS011;4992;51.628;6.664;2023-03-02T06:13:14;8.10;;;5.57;;
9906;SDS011;4992;51.628;6.664;2023-03-02T06:15:40;8.17;;;5.73;;
9906;SDS011;4992;51.628;6.664;2023-03-02T06:18:07;8.97;;;5.30;;
9906;SDS011;4992;51.628;6.664;2023-03-02T06:20:32;7.07;;;5.10;;
9906;SDS011;4992;51.628;6.664;2023-03-02T06:22:58;8.07;;;5.40;;
9906;SDS011;4992;51.628;6.664;2023-03-02T06:25:23;7.93;;;5.53;;
9906;SDS011;4992;51.628;6.664;2023-03-02T06:27:50;9.00;;;7.00;;
9906;SDS011;4992;51.628;6.664;2023-03-02T06:30:18;9.97;;;6.00;;
9906;SDS011;4992;51.628;6.664;2023-03-02T06:32:46;7.77;;;6.30;;
9906;SDS011;4992;51.628;6.664;2023-03-02T06:35:12;9.83;;;6.60;;
9906;SDS011;4992;51.628;6.664;2023-03-02T06:37:38;8.57;;;6.00;;
9906;SDS011;4992;51.628;6.664;2023-03-02T06:40:04;9.13;;;6.30;;
9906;SDS011;4992;51.628;6.664;2023-03-02T06:42:34;9.40;;;6.60;;
9906;SDS011;4992;51.628;6.664;2023-03-02T06:45:01;8.57;;;6.70;;
9906;SDS011;4992;51.628;6.664;2023-03-02T06:47:26;10.97;;;7.30;;
9906;SDS011;4992;51.628;6.664;2023-03-02T06:49:52;10.37;;;6.77;;
9906;SDS011;4992;51.628;6.664;2023-03-02T06:52:17;10.63;;;6.97;;
9906;SDS011;4992;51.628;6.664;2023-03-02T06:54:43;9.77;;;6.57;;
9906;SDS011;4992;51.628;6.664;2023-03-02T06:57:09;10.77;;;7.80;;
9906;SDS011;4992;51.628;6.664;2023-03-02T06:59:35;11.37;;;7.93;;
9906;SDS011;4992;51.628;6.664;2023-03-02T07:02:00;13.33;;;8.00;;
9906;SDS011;4992;51.628;6.664;2023-03-02T07:04:26;13.83;;;7.97;;
9906;SDS011;4992;51.628;6.664;2023-03-02T07:06:52;12.47;;;7.37;;
9906;SDS011;4992;51.628;6.664;2023-03-02T07:09:18;12.13;;;7.90;;
9906;SDS011;4992;51.628;6.664;2023-03-02T07:11:44;14.13;;;8.07;;
9906;SDS011;4992;51.628;6.664;2023-03-02T07:14:09;13.60;;;8.07;;
9906;SDS011;4992;51.628;6.664;2023-03-02T07:16:35;12.67;;;8.53;;
9906;SDS011;4992;51.628;6.664;2023-03-02T07:19:00;14.13;;;9.23;;
9906;SDS011;4992;51.628;6.664;2023-03-02T07:21:26;12.67;;;8.27;;
9906;SDS011;4992;51.628;6.664;2023-03-02T07:23:52;16.77;;;10.20;;
9906;SDS011;4992;51.628;6.664;2023-03-02T07:26:17;15.30;;;9.73;;
9906;SDS011;4992;51.628;6.664;2023-03-02T07:28:44;12.03;;;8.40;;
9906;SDS011;4992;51.628;6.664;2023-03-02T07:31:10;11.80;;;8.67;;
9906;SDS011;4992;51.628;6.664;2023-03-02T07:33:37;12.87;;;8.97;;
9906;SDS011;4992;51.628;6.664;2023-03-02T07:36:04;13.50;;;9.53;;
9906;SDS011;4992;51.628;6.664;2023-03-02T07:38:31;14.33;;;9.10;;
9906;SDS011;4992;51.628;6.664;2023-03-02T07:40:57;18.43;;;9.70;;
9906;SDS011;4992;51.628;6.664;2023-03-02T07:43:23;14.37;;;9.73;;
9906;SDS011;4992;51.628;6.664;2023-03-02T07:45:50;14.60;;;9.70;;
9906;SDS011;4992;51.628;6.664;2023-03-02T07:48:16;14.20;;;9.77;;
9906;SDS011;4992;51.628;6.664;2023-03-02T07:50:42;13.43;;;9.10;;
9906;SDS011;4992;51.628;6.664;2023-03-02T07:53:08;16.17;;;9.90;;
9906;SDS011;4992;51.628;6.664;2023-03-02T07:55:34;14.80;;;9.53;;
9906;SDS011;4992;51.628;6.664;2023-03-02T07:58:03;13.63;;;9.00;;
9906;SDS011;4992;51.628;6.664;2023-03-02T08:00:29;13.70;;;8.87;;
9906;SDS011;4992;51.628;6.664;2023-03-02T08:02:54;13.53;;;8.97;;
9906;SDS011;4992;51.628;6.664;2023-03-02T08:05:20;13.63;;;9.30;;
9906;SDS011;4992;51.628;6.664;2023-03-02T08:07:45;15.17;;;8.73;;
9906;SDS011;4992;51.628;6.664;2023-03-02T08:10:12;15.93;;;9.40;;
9906;SDS011;4992;51.628;6.664;2023-03-02T08:12:38;12.60;;;8.43;;
9906;SDS011;4992;51.628;6.664;2023-03-02T08:15:04;15.63;;;8.73;;
9906;SDS011;4992;51.628;6.664;2023-03-02T08:17:30;11.13;;;8.20;;
9906;SDS011;4992;51.628;6.664;2023-03-02T08:19:56;10.97;;;7.93;;
9906;SDS011;4992;51.628;6.664;2023-03-02T08:22:21;13.07;;;8.40;;
9906;SDS011;4992;51.628;6.664;2023-03-02T08:24:47;13.80;;;8.40;;
9906;SDS011;4992;51.628;6.664;2023-03-02T08:27:13;13.03;;;8.43;;
9906;SDS011;4992;51.628;6.664;2023-03-02T08:29:39;11.67;;;8.17;;
9906;SDS011;4992;51.628;6.664;2023-03-02T08:32:05;12.10;;;9.10;;
9906;SDS011;4992;51.628;6.664;2023-03-02T08:34:31;11.20;;;8.70;;
9906;SDS011;4992;51.628;6.664;2023-03-02T08:36:57;12.10;;;8.37;;
9906;SDS011;4992;51.628;6.664;2023-03-02T08:39:22;10.63;;;8.20;;
9906;SDS011;4992;51.628;6.664;2023-03-02T08:41:49;10.53;;;7.57;;
9906;SDS011;4992;51.628;6.664;2023-03-02T08:44:15;12.27;;;7.73;;
9906;SDS011;4992;51.628;6.664;2023-03-02T08:46:41;9.33;;;6.70;;
9906;SDS011;4992;51.628;6.664;2023-03-02T08:49:07;10.30;;;7.83;;
9906;SDS011;4992;51.628;6.664;2023-03-02T08:51:33;11.20;;;7.87;;
9906;SDS011;4992;51.628;6.664;2023-03-02T08:53:58;10.50;;;7.40;;
9906;SDS011;4992;51.628;6.664;2023-03-02T08:56:28;10.63;;;7.50;;
9906;SDS011;4992;51.628;6.664;2023-03-02T08:58:57;9.77;;;7.37;;
9906;SDS011;4992;51.628;6.664;2023-03-02T09:01:26;9.97;;;6.83;;
9906;SDS011;4992;51.628;6.664;2023-03-02T09:03:53;9.47;;;6.93;;
9906;SDS011;4992;51.628;6.664;2023-03-02T09:06:19;11.07;;;7.37;;
9906;SDS011;4992;51.628;6.664;2023-03-02T09:08:45;11.20;;;7.67;;
9906;SDS011;4992;51.628;6.664;2023-03-02T09:11:11;10.03;;;7.17;;
9906;SDS011;4992;51.628;6.664;2023-03-02T09:13:37;11.97;;;6.97;;
9906;SDS011;4992;51.628;6.664;2023-03-02T09:16:03;11.30;;;6.57;;
9906;SDS011;4992;51.628;6.664;2023-03-02T09:18:30;10.73;;;7.50;;
9906;SDS011;4992;51.628;6.664;2023-03-02T09:20:56;9.00;;;6.77;;
9906;SDS011;4992;51.628;6.664;2023-03-02T09:23:23;9.10;;;6.67;;
9906;SDS011;4992;51.628;6.664;2023-03-02T09:25:49;9.47;;;7.10;;
9906;SDS011;4992;51.628;6.664;2023-03-02T09:28:16;9.30;;;6.70;;
9906;SDS011;4992;51.628;6.664;2023-03-02T09:30:47;7.70;;;6.17;;
9906;SDS011;4992;51.628;6.664;2023-03-02T09:33:14;9.77;;;6.90;;
9906;SDS011;4992;51.628;6.664;2023-03-02T09:35:39;8.80;;;5.90;;
9906;SDS011;4992;51.628;6.664;2023-03-02T09:38:05;11.37;;;6.00;;
9906;SDS011;4992;51.628;6.664;2023-03-02T09:40:31;7.83;;;5.93;;
9906;SDS011;4992;51.628;6.664;2023-03-02T09:54:26;7.30;;;4.83;;
9906;SDS011;4992;51.628;6.664;2023-03-02T09:56:54;7.57;;;5.27;;
9906;SDS011;4992;51.628;6.664;2023-03-02T09:59:23;6.77;;;4.93;;
9906;SDS011;4992;51.628;6.664;2023-03-02T10:02:19;7.80;;;4.67;;
9906;SDS011;4992;51.628;6.664;2023-03-02T10:04:57;16.77;;;6.13;;
9906;SDS011;4992;51.628;6.664;2023-03-02T10:07:31;7.17;;;5.40;;
9906;SDS011;4992;51.628;6.664;2023-03-02T10:10:05;9.80;;;5.67;;
9906;SDS011;4992;51.628;6.664;2023-03-02T10:12:50;7.17;;;5.30;;
9906;SDS011;4992;51.628;6.664;2023-03-02T10:15:45;7.40;;;5.37;;
9906;SDS011;4992;51.628;6.664;2023-03-02T10:18:21;7.43;;;5.80;;
9906;SDS011;4992;51.628;6.664;2023-03-02T10:21:11;12.60;;;5.63;;
9906;SDS011;4992;51.628;6.664;2023-03-02T10:27:25;7.70;;;5.20;;
9906;SDS011;4992;51.628;6.664;2023-03-02T10:32:44;7.83;;;4.87;;
9906;SDS011;4992;51.628;6.664;2023-03-02T10:35:22;8.93;;;5.40;;
9906;SDS011;4992;51.628;6.664;2023-03-02T10:37:50;8.87;;;5.63;;
9906;SDS011;4992;51.628;6.664;2023-03-02T10:40:36;9.67;;;5.70;;
9906;SDS011;4992;51.628;6.664;2023-03-02T10:43:05;9.40;;;5.50;;
9906;SDS011;4992;51.628;6.664;2023-03-02T10:45:37;14.63;;;5.20;;
9906;SDS011;4992;51.628;6.664;2023-03-02T10:48:07;7.00;;;5.17;;
9906;SDS011;4992;51.628;6.664;2023-03-02T10:50:35;9.37;;;5.60;;
9906;SDS011;4992;51.628;6.664;2023-03-02T10:53:01;6.37;;;5.67;;
9906;SDS011;4992;51.628;6.664;2023-03-02T10:55:27;8.30;;;5.83;;
9906;SDS011;4992;51.628;6.664;2023-03-02T11:00:53;7.00;;;5.60;;
9906;SDS011;4992;51.628;6.664;2023-03-02T11:03:21;9.70;;;5.77;;
9906;SDS011;4992;51.628;6.664;2023-03-02T11:05:47;8.33;;;5.57;;
9906;SDS011;4992;51.628;6.664;2023-03-02T11:08:17;7.20;;;5.23;;
9906;SDS011;4992;51.628;6.664;2023-03-02T11:10:52;6.40;;;5.33;;
9906;SDS011;4992;51.628;6.664;2023-03-02T11:13:31;6.63;;;5.17;;
9906;SDS011;4992;51.628;6.664;2023-03-02T11:16:02;6.33;;;5.10;;
9906;SDS011;4992;51.628;6.664;2023-03-02T11:18:47;7.83;;;5.40;;
9906;SDS011;4992;51.628;6.664;2023-03-02T11:21:31;9.43;;;5.53;;
9906;SDS011;4992;51.628;6.664;2023-03-02T11:24:11;6.30;;;4.97;;
9906;SDS011;4992;51.628;6.664;2023-03-02T11:26:55;6.63;;;4.90;;
9906;SDS011;4992;51.628;6.664;2023-03-02T11:29:36;8.23;;;5.10;;
9906;SDS011;4992;51.628;6.664;2023-03-02T11:32:19;6.57;;;4.90;;
9906;SDS011;4992;51.628;6.664;2023-03-02T11:35:14;5.60;;;4.40;;
9906;SDS011;4992;51.628;6.664;2023-03-02T11:37:55;6.27;;;4.60;;
9906;SDS011;4992;51.628;6.664;2023-03-02T11:40:48;6.07;;;4.90;;
9906;SDS011;4992;51.628;6.664;2023-03-02T11:43:14;7.70;;;5.07;;
9906;SDS011;4992;51.628;6.664;2023-03-02T11:45:41;5.70;;;5.20;;
9906;SDS011;4992;51.628;6.664;2023-03-02T11:48:17;5.50;;;4.85;;
9906;SDS011;4992;51.628;6.664;2023-03-02T11:50:59;6.57;;;5.40;;
9906;SDS011;4992;51.628;6.664;2023-03-02T11:56:06;8.15;;;5.25;;
9906;SDS011;4992;51.628;6.664;2023-03-02T11:58:32;5.70;;;4.95;;
9906;SDS011;4992;51.628;6.664;2023-03-02T12:00:58;7.72;;;5.03;;
9906;SDS011;4992;51.628;6.664;2023-03-02T12:08:50;6.40;;;4.55;;
9906;SDS011;4992;51.628;6.664;2023-03-02T12:19:39;7.50;;;4.28;;
9906;SDS011;4992;51.628;6.664;2023-03-02T12:22:07;5.10;;;4.45;;
9906;SDS011;4992;51.628;6.664;2023-03-02T12:24:37;6.03;;;4.47;;
9906;SDS011;4992;51.628;6.664;2023-03-02T12:29:45;4.43;;;3.92;;
9906;SDS011;4992;51.628;6.664;2023-03-02T12:32:21;4.32;;;3.80;;
9906;SDS011;4992;51.628;6.664;2023-03-02T12:37:46;5.25;;;4.75;;
9906;SDS011;4992;51.628;6.664;2023-03-02T12:43:32;4.70;;;4.07;;
9906;SDS011;4992;51.628;6.664;2023-03-02T12:54:18;5.95;;;4.75;;
9906;SDS011;4992;51.628;6.664;2023-03-02T12:56:45;4.90;;;4.28;;
9906;SDS011;4992;51.628;6.664;2023-03-02T12:59:22;6.50;;;5.60;;
9906;SDS011;4992;51.628;6.664;2023-03-02T13:02:02;5.97;;;5.38;;
9906;SDS011;4992;51.628;6.664;2023-03-02T13:04:29;7.65;;;4.93;;
9906;SDS011;4992;51.628;6.664;2023-03-02T13:06:55;5.60;;;4.70;;
9906;SDS011;4992;51.628;6.664;2023-03-02T13:09:20;5.22;;;4.72;;
9906;SDS011;4992;51.628;6.664;2023-03-02T13:11:47;6.00;;;4.63;;
9906;SDS011;4992;51.628;6.664;2023-03-02T13:14:25;5.78;;;4.88;;
9906;SDS011;4992;51.628;6.664;2023-03-02T13:16:53;6.30;;;4.18;;
9906;SDS011;4992;51.628;6.664;2023-03-02T13:19:24;4.78;;;4.32;;
9906;SDS011;4992;51.628;6.664;2023-03-02T13:21:51;5.88;;;4.47;;
9906;SDS011;4992;51.628;6.664;2023-03-02T13:27:13;5.25;;;4.72;;
9906;SDS011;4992;51.628;6.664;2023-03-02T13:29:41;5.47;;;4.97;;
9906;SDS011;4992;51.628;6.664;2023-03-02T13:32:24;7.00;;;5.97;;
9906;SDS011;4992;51.628;6.664;2023-03-02T13:34:52;5.40;;;4.90;;
9906;SDS011;4992;51.628;6.664;2023-03-02T13:37:31;5.40;;;4.60;;
9906;SDS011;4992;51.628;6.664;2023-03-02T13:40:29;7.03;;;4.35;;
9906;SDS011;4992;51.628;6.664;2023-03-02T13:45:50;5.75;;;4.80;;
9906;SDS011;4992;51.628;6.664;2023-03-02T13:48:18;7.90;;;5.90;;
9906;SDS011;4992;51.628;6.664;2023-03-02T13:53:44;6.70;;;5.65;;
9906;SDS011;4992;51.628;6.664;2023-03-02T13:56:17;7.18;;;6.22;;
9906;SDS011;4992;51.628;6.664;2023-03-02T13:58:43;6.18;;;5.57;;
9906;SDS011;4992;51.628;6.664;2023-03-02T14:01:09;6.13;;;5.53;;
9906;SDS011;4992;51.628;6.664;2023-03-02T14:03:36;6.35;;;5.53;;
9906;SDS011;4992;51.628;6.664;2023-03-02T14:06:02;6.38;;;5.78;;
9906;SDS011;4992;51.628;6.664;2023-03-02T14:08:30;6.43;;;4.72;;
9906;SDS011;4992;51.628;6.664;2023-03-02T14:10:56;5.43;;;4.93;;
9906;SDS011;4992;51.628;6.664;2023-03-02T14:13:45;6.68;;;5.25;;
9906;SDS011;4992;51.628;6.664;2023-03-02T14:16:19;6.13;;;5.53;;
9906;SDS011;4992;51.628;6.664;2023-03-02T14:18:45;6.63;;;6.00;;
9906;SDS011;4992;51.628;6.664;2023-03-02T14:21:13;6.43;;;5.80;;
9906;SDS011;4992;51.628;6.664;2023-03-02T14:23:46;6.20;;;5.60;;
9906;SDS011;4992;51.628;6.664;2023-03-02T14:26:29;6.38;;;5.75;;
9906;SDS011;4992;51.628;6.664;2023-03-02T14:31:45;5.85;;;5.35;;
9906;SDS011;4992;51.628;6.664;2023-03-02T14:34:11;9.95;;;6.88;;
9906;SDS011;4992;51.628;6.664;2023-03-02T14:36:38;6.13;;;5.53;;
9906;SDS011;4992;51.628;6.664;2023-03-02T14:39:06;6.72;;;5.40;;
9906;SDS011;4992;51.628;6.664;2023-03-02T14:41:56;6.57;;;5.93;;
9906;SDS011;4992;51.628;6.664;2023-03-02T14:44:22;7.00;;;6.15;;
9906;SDS011;4992;51.628;6.664;2023-03-02T14:46:47;7.70;;;6.50;;
9906;SDS011;4992;51.628;6.664;2023-03-02T14:49:13;6.35;;;5.75;;
9906;SDS011;4992;51.628;6.664;2023-03-02T14:51:39;7.30;;;5.90;;
9906;SDS011;4992;51.628;6.664;2023-03-02T14:54:07;7.15;;;6.05;;
9906;SDS011;4992;51.628;6.664;2023-03-02T14:56:38;7.07;;;6.38;;
9906;SDS011;4992;51.628;6.664;2023-03-02T14:59:04;8.57;;;6.15;;
9906;SDS011;4992;51.628;6.664;2023-03-02T15:01:30;6.60;;;5.97;;
9906;SDS011;4992;51.628;6.664;2023-03-02T15:03:55;7.72;;;6.20;;
9906;SDS011;4992;51.628;6.664;2023-03-02T15:06:23;6.72;;;6.03;;
9906;SDS011;4992;51.628;6.664;2023-03-02T15:08:52;8.52;;;6.72;;
9906;SDS011;4992;51.628;6.664;2023-03-02T15:11:19;6.90;;;6.30;;
9906;SDS011;4992;51.628;6.664;2023-03-02T15:13:45;7.60;;;6.45;;
9906;SDS011;4992;51.628;6.664;2023-03-02T15:16:11;8.88;;;7.03;;
9906;SDS011;4992;51.628;6.664;2023-03-02T15:18:37;8.43;;;6.63;;
9906;SDS011;4992;51.628;6.664;2023-03-02T15:21:03;8.60;;;7.15;;
9906;SDS011;4992;51.628;6.664;2023-03-02T15:23:29;8.38;;;7.10;;
9906;SDS011;4992;51.628;6.664;2023-03-02T15:25:58;8.75;;;7.00;;
9906;SDS011;4992;51.628;6.664;2023-03-02T15:28:24;8.20;;;7.25;;
9906;SDS011;4992;51.628;6.664;2023-03-02T15:30:50;7.72;;;6.80;;
9906;SDS011;4992;51.628;6.664;2023-03-02T15:33:16;10.63;;;7.45;;
9906;SDS011;4992;51.628;6.664;2023-03-02T15:35:41;9.52;;;7.05;;
9906;SDS011;4992;51.628;6.664;2023-03-02T15:38:08;8.07;;;7.28;;
9906;SDS011;4992;51.628;6.664;2023-03-02T15:40:34;8.95;;;7.78;;
9906;SDS011;4992;51.628;6.664;2023-03-02T15:43:00;10.80;;;7.38;;
9906;SDS011;4992;51.628;6.664;2023-03-02T15:45:26;9.00;;;7.78;;
9906;SDS011;4992;51.628;6.664;2023-03-02T15:47:52;8.30;;;7.43;;
9906;SDS011;4992;51.628;6.664;2023-03-02T15:50:19;10.25;;;8.27;;
9906;SDS011;4992;51.628;6.664;2023-03-02T15:52:45;9.23;;;7.25;;
9906;SDS011;4992;51.628;6.664;2023-03-02T15:55:11;8.07;;;7.28;;
9906;SDS011;4992;51.628;6.664;2023-03-02T15:57:39;10.20;;;8.32;;
9906;SDS011;4992;51.628;6.664;2023-03-02T16:00:05;9.50;;;7.20;;
9906;SDS011;4992;51.628;6.664;2023-03-02T16:02:31;9.13;;;7.30;;
9906;SDS011;4992;51.628;6.664;2023-03-02T16:04:57;8.50;;;7.37;;
9906;SDS011;4992;51.628;6.664;2023-03-02T16:07:22;9.53;;;8.03;;
9906;SDS011;4992;51.628;6.664;2023-03-02T16:09:49;10.93;;;8.20;;
9906;SDS011;4992;51.628;6.664;2023-03-02T16:12:15;9.03;;;7.77;;
9906;SDS011;4992;51.628;6.664;2023-03-02T16:14:44;10.63;;;7.73;;
9906;SDS011;4992;51.628;6.664;2023-03-02T16:17:09;8.70;;;7.57;;
9906;SDS011;4992;51.628;6.664;2023-03-02T16:19:35;17.63;;;7.80;;
9906;SDS011;4992;51.628;6.664;2023-03-02T16:22:01;8.77;;;7.03;;
9906;SDS011;4992;51.628;6.664;2023-03-02T16:24:27;8.87;;;6.90;;
9906;SDS011;4992;51.628;6.664;2023-03-02T16:26:53;9.00;;;7.10;;
9906;SDS011;4992;51.628;6.664;2023-03-02T16:29:18;8.57;;;7.07;;
9906;SDS011;4992;51.628;6.664;2023-03-02T16:31:44;8.87;;;7.23;;
9906;SDS011;4992;51.628;6.664;2023-03-02T16:34:11;9.53;;;7.00;;
9906;SDS011;4992;51.628;6.664;2023-03-02T16:36:38;11.43;;;8.00;;